NCAR-RAP Real-Time Weather Data

Output produced by METARs form (17 January 2019  22:51 UTC)
found at http://weather.rap.ucar.edu/surface/
 
KSYR 172154Z 00000KT 10SM SCT120 OVC200 M07/M15 A3023 RMK AO2 SLP242 T10721150
KSYR 172054Z 06007KT 10SM BKN100 OVC170 M07/M15 A3025 RMK AO2 SLP249 T10721150 56024
KSYR 171954Z 08006KT 10SM BKN120 OVC200 M08/M16 A3027 RMK AO2 SLP255 T10781156
KSYR 171854Z 08006KT 10SM FEW030 BKN150 BKN200 M08/M16 A3029 RMK AO2 SLP261 T10781156
KSYR 171754Z 00000KT 10SM FEW030 BKN150 BKN200 M08/M15 A3032 RMK AO2 SLP273 4/005 933006 T10781150 11078 21167 58032
KSYR 171554Z 08004KT 10SM FEW030 BKN200 M13/M18 A3041 RMK AO2 SLP302 T11281183
KSYR 171454Z 08003KT 10SM FEW030 FEW150 SCT200 M14/M19 A3042 RMK AO2 SLP306 T11391194 51001
KSYR 171354Z 10006KT 10SM FEW030 FEW150 SCT200 M16/M20 A3042 RMK AO2 SLP306 T11561200
KSYR 171254Z 09006KT 10SM FEW031 SCT200 M17/M21 A3042 RMK AO2 SLP307 T11671206
KSYR 171154Z 09006KT 10SM SCT031 SCT200 M16/M19 A3042 RMK AO2 SLP305 4/005 70001 T11611194 11106 21161 53016
KSYR 171054Z 08004KT 10SM FEW032 M14/M19 A3039 RMK AO2 SLP298 T11441189
KSYR 170954Z 06004KT 10SM SCT032 M14/M19 A3037 RMK AO2 SLP290 T11441189
KSYR 170854Z 06003KT 10SM BKN033 M14/M19 A3037 RMK AO2 SLP288 T11391189 51008
KSYR 170754Z 00000KT 10SM FEW029 SCT036 M13/M19 A3037 RMK AO2 SLP288 T11281194
KSYR 170654Z 04004KT 10SM FEW029 SCT038 M12/M19 A3035 RMK AO2 SLP281 T11221194
KSYR 170554Z 01005KT 10SM BKN038 M11/M19 A3034 RMK AO2 SNE22 SLP278 4/005 11044 21106 P0000 60000 T11061189 51020
KSYR 170454Z 36007KT 9SM -SN BKN042 M09/M18 A3034 RMK AO2 SLP276 PCPN VRY LGT P0000 T10941178 400171094
KSYR 170354Z 34009KT 9SM -SN OVC042 M08/M16 A3031 RMK AO2 SNB02 SLP268 P0000 T10831156
KSYR 170254Z 35006KT 10SM OVC038 M07/M14 A3029 RMK AO2 SLP258 T10721139 51031
KSYR 170154Z 29009KT 10SM BKN040 M06/M13 A3025 RMK AO2 SLP247 T10611128
KSYR 170054Z 28012G19KT 10SM SCT041 M06/M13 A3023 RMK AO2 SLP239 T10561128
KSYR 162354Z 27011KT 10SM FEW038 M04/M12 A3019 RMK AO2 SLP227 4/005 60001 T10441122 10017 21050 51041
KSYR 162254Z 28010KT 10SM SCT038 M04/M11 A3016 RMK AO2 PK WND 29031/2236 SLP215 T10391111
KSYR 162154Z 28020G28KT 9SM BLSN BKN038 BKN045 M03/M09 A3011 RMK AO2 PK WND 28030/2058 SNE36 SLP200 P0000 T10281094
KSYR 162054Z 28017G26KT 8SM -SN BLSN BKN039 BKN047 M02/M07 A3007 RMK AO2 PK WND 28029/2023 SLP184 P0000 60001 T10171072 51044
KSYR 161954Z 29023G29KT 6SM -SN BLSN OVC035 M01/M06 A3003 RMK AO2 PK WND 28031/1936 SLP170 P0000 T10111061
KSYR 161854Z 28014KT 5SM -SN BR BKN026 OVC035 M01/M03 A2998 RMK AO2 PK WND 28031/1829 GSB31E41 SLP155 P0001 T10061028
KSYR 161841Z 28016KT 4SM R28/4500VP6000FT -SN BR BKN022 OVC035 M01/M02 A2997 RMK AO2 PK WND 28031/1829 GSB31E41 GS LTG P0000 T10061022
KSYR 161831Z 30024G31KT 2SM R28/5000VP6000FT -SNGS BKN022 OVC042 01/M03 A2997 RMK AO2 PK WND 28031/1829 GSB31 PRESRR GS LTG P0000 T00061033
KSYR 161754Z 25021G26KT 9SM -SN SCT033 BKN047 OVC060 02/M04 A2994 RMK AO2 PK WND 23030/1735 SLP140 4/006 933009 P0000 60000 T00171039 10017 21022 58003
KSYR 161654Z 25015G21KT 9SM -SN SCT030 BKN040 OVC065 01/M04 A2995 RMK AO2 SLP143 PCPN VRY LGT P0000 T00061044
KSYR 161554Z 25016G23KT 9SM -SN SCT025 OVC055 00/M04 A2996 RMK AO2 SNB41 SLP148 PCPN VRY LGT P0000 T00001039
KSYR 161454Z 24016KT 10SM SCT020 SCT047 OVC060 M01/M04 A2995 RMK AO2 SNE45 SLP143 P0000 60000 T10061039 51005
KSYR 161432Z 23014G19KT 6SM -SN SCT022 BKN042 OVC060 M01/M04 A2995 RMK AO2 P0000 T10061039
KSYR 161425Z 23013G21KT 2 1/2SM -SN SCT023 BKN040 OVC065 M01/M04 A2995 RMK AO2 P0000 T10111039
KSYR 161354Z 23012KT 8SM -SN SCT020 OVC028 M02/M04 A2995 RMK AO2 SLP143 SNB11 PCPN VRY LGT P0000 T10171044
KSYR 161254Z 23013KT 10SM OVC023 M02/M06 A2994 RMK AO2 SNE47 SLP140 P0000 T10171056
KSYR 161154Z 22013KT 9SM -SN OVC022 M02/M06 A2993 RMK AO2 SLP138 PCPN VRY LGT 4/006 P0000 60000 T10221056 11017 21033 56009
KSYR 161054Z 20008KT 7SM -SN OVC026 M03/M06 A2994 RMK AO2 SLP139 P0000 T10281061
KSYR 160954Z 22012KT 8SM -SN OVC026 M03/M06 A2995 RMK AO2 SLP142 P0000 T10281061
KSYR 160854Z 28013G19KT 9SM -SN OVC024 M03/M07 A2996 RMK AO2 SNB04 SLP148 PCPN VRY LGT P0000 60000 T10281067 53005
KSYR 160754Z 20007KT 10SM OVC028 M02/M07 A2995 RMK AO2 SLP143 T10171067
KSYR 160654Z 20005KT 10SM OVC029 M02/M07 A2994 RMK AO2 SLP141 T10221067
KSYR 160614Z 19005KT 10SM OVC028 M02/M07 A2994 RMK AO2 T10221072
KSYR 160554Z 19006KT 10SM OVC030 M02/M07 A2995 RMK AO2 SLP143 4/006 T10221072 11011 21039 56023
KSYR 160454Z 20006KT 10SM FEW029 SCT040 M03/M08 A2996 RMK AO2 SLP148 T10331078 410061117
KSYR 160354Z 18004KT 10SM SCT050 M02/M07 A2999 RMK AO2 SLP157 T10221067
KSYR 160254Z 00000KT 10SM OVC038 M02/M06 A3002 RMK AO2 SLP166 T10171056 58019
KSYR 160201Z 20005KT 10SM OVC032 M02/M05 A3003 RMK AO2 T10171050
KSYR 160154Z 20006KT 10SM OVC018 M02/M06 A3004 RMK AO2 SLP173 T10171056
KSYR 160054Z 21005KT 8SM OVC018 M02/M04 A3006 RMK AO2 SLP181 T10171044
KSYR 152354Z 22006KT 7SM OVC018 M02/M04 A3007 RMK AO2 SLP186 4/006 60000 T10171039 11006 21017 58004
KSYR 152254Z 24011KT 8SM OVC020 M01/M04 A3008 RMK AO2 SLP188 T10111044
KSYR 152154Z 24008KT 9SM BKN020 OVC028 M01/M05 A3008 RMK AO2 SLP189 T10111050
KSYR 152054Z 23008KT 8SM BKN020 OVC032 M01/M05 A3008 RMK AO2 SLP190 60000 T10111050 56005
KSYR 152004Z 23011KT 8SM OVC020 M01/M04 A3009 RMK AO2 T10111044
KSYR 151954Z 23010KT 9SM BKN021 OVC042 M01/M04 A3009 RMK AO2 SNE05 SLP191 P0000 T10111044
KSYR 151937Z 24008KT 8SM BKN021 OVC042 M01/M04 A3009 RMK AO2 SNE05 P0000 T10061044
KSYR 151854Z 24011KT 8SM -SN FEW027 OVC040 M01/M05 A3008 RMK AO2 SLP190 PCPN VRY LGT P0000 T10111050
KSYR 151815Z 24011KT 8SM -SN BKN030 OVC040 M01/M06 A3009 RMK AO2 PCPN VRY LGT P0000 T10111056
KSYR 151754Z 24009KT 8SM -SN BKN023 OVC028 M02/M06 A3010 RMK AO2 SLP196 PCPN VRY LGT 4/007 933012 P0000 60000 T10171056 11017 21044 58021
KSYR 151654Z 25008KT 9SM -SN OVC021 M02/M06 A3013 RMK AO2 SLP206 PCPN VRY LGT P0000 T10171061
KSYR 151554Z 24008KT 9SM -SN OVC021 M02/M07 A3015 RMK AO2 SLP215 PCPN VRY LGT P0000 T10221067
KSYR 151454Z 25006KT 9SM -SN OVC027 M03/M07 A3016 RMK AO2 SNB18 SLP218 PCPN VRY LGT P0000 60000 T10281067 53005
KSYR 151419Z 25007KT 10SM -SN BKN026 OVC035 M03/M07 A3015 RMK AO2 SNB18 PCPN VRY LGT P0000 T10281067
KSYR 151354Z 24008KT 10SM SCT024 OVC035 M03/M07 A3014 RMK AO2 SLP212 T10331067
KSYR 151254Z 24007KT 10SM OVC021 M04/M07 A3014 RMK AO2 SLP210 T10391072
KSYR 151154Z 24007KT 9SM OVC025 M04/M07 A3015 RMK AO2 SLP213 4/007 T10441072 11044 21094 55002
KSYR 151054Z 23008KT 9SM OVC025 M05/M08 A3014 RMK AO2 SLP211 T10501078
KSYR 150954Z 24006KT 10SM OVC027 M06/M08 A3014 RMK AO2 SLP211 T10561083
KSYR 150854Z 16003KT 10SM FEW022 OVC028 M07/M09 A3015 RMK AO2 SLP215 T10671094 58014
KSYR 150754Z 19005KT 10SM OVC025 M07/M09 A3018 RMK AO2 SLP223 T10721094
KSYR 150654Z 19006KT 10SM FEW018 OVC024 M08/M10 A3018 RMK AO2 SLP225 T10831100
KSYR 150645Z 19006KT 10SM OVC023 M08/M11 A3018 RMK AO2 T10831106
KSYR 150554Z 16003KT 10SM OVC017 M09/M11 A3019 RMK AO2 SLP229 4/007 T10941111 11094 21139 58002
KSYR 150454Z 00000KT 9SM BKN016 BKN200 M12/M13 A3020 RMK AO2 SLP231 T11171128 410561172
KSYR 150401Z 00000KT 9SM BKN014 BKN200 M13/M14 A3021 RMK AO2 T11281144
KSYR 150354Z 00000KT 10SM SCT014 BKN200 M13/M15 A3020 RMK AO2 SLP233 T11331150
KSYR 150254Z 00000KT 9SM BKN200 M12/M14 A3020 RMK AO2 SLP232 T11221139 56007
KSYR 150154Z 00000KT 8SM BKN200 M12/M14 A3020 RMK AO2 SLP233 T11221139
KSYR 150054Z 00000KT 9SM BKN200 M11/M12 A3021 RMK AO2 SLP235 T11061117
KSYR 142354Z 00000KT 10SM BKN200 M09/M11 A3022 RMK AO2 SLP240 4/007 T10941106 11056 21094 55002
KSYR 142254Z 00000KT 10SM FEW150 SCT200 M09/M11 A3022 RMK AO2 SLP239 T10891111
KSYR 142154Z 00000KT 10SM FEW150 SCT200 M07/M10 A3021 RMK AO2 SLP237 T10721100
KSYR 142054Z 00000KT 10SM FEW015 SCT200 M07/M10 A3023 RMK AO2 SLP242 T10671100 56018
KSYR 141954Z 00000KT 10SM FEW015 SCT200 M07/M10 A3024 RMK AO2 SLP247 T10671100
KSYR 141922Z 00000KT 10SM SCT014 BKN200 M07/M11 A3025 RMK AO2 T10721106
KSYR 141854Z 03003KT 10SM BKN014 M07/M10 A3026 RMK AO2 SLP254 T10671100
KSYR 141754Z 00000KT 10SM OVC012 M07/M11 A3028 RMK AO2 SNE03 SLP260 4/007 933012 P0000 60000 T10721106 11072 21161 58023
KSYR 141654Z 00000KT 9SM -SN OVC011 M08/M11 A3030 RMK AO2 SLP268 PCPN VRY LGT P0000 T10831111
KSYR 141621Z 00000KT 9SM -SN OVC010 M09/M12 A3032 RMK AO2 PCPN VRY LGT P0000 T10941117
KSYR 141554Z 00000KT 9SM -SN OVC009 M11/M13 A3034 RMK AO2 SLP278 PCPN VRY LGT P0000 T11061133
KSYR 141454Z 14004KT 9SM -SN OVC009 M12/M15 A3035 RMK AO2 SLP283 PCPN VRY LGT P0000 60000 T11221150 56001
KSYR 141354Z 13003KT 5SM -SN BR BKN006 OVC010 M14/M16 A3035 RMK AO2 SLP284 P0000 T11391161
KSYR 141335Z 13005KT 4SM -SN BR OVC006 M14/M17 A3035 RMK AO2 P0000 T11441167
KSYR 141254Z 13005KT 6SM -SN BR BKN004 OVC010 M15/M17 A3035 RMK AO2 SLP283 P0000 T11501172
KSYR 141229Z 11004KT 9SM -SN BKN004 OVC010 M16/M18 A3035 RMK AO2 PCPN VRY LGT P0000 T11561178
KSYR 141154Z 15004KT 8SM -SN BKN006 BKN008 M16/M18 A3035 RMK AO2 SLP284 4/008 P0000 60000 T11561178 11144 21172 55001
KSYR 141054Z 11004KT 8SM -SN BKN004 OVC007 M15/M17 A3035 RMK AO2 SLP283 P0000 T11501172
KSYR 141035Z 13004KT 7SM -SN BKN004 OVC007 M16/M17 A3035 RMK AO2 P0000 T11561172
KSYR 141026Z 14005KT 6SM -SN BR OVC005 M16/M17 A3035 RMK AO2 CIG 003V007 P0000 T11611172
KSYR 140954Z 00000KT 6SM -SN BR OVC003 M17/M18 A3035 RMK AO2 SLP283 VIS NW 1 P0000 T11671178
KSYR 140901Z 00000KT 9SM -SN BKN002 M16/M18 A3035 RMK AO2 P0000 T11611178
KSYR 140854Z 00000KT 9SM -SN SCT003 M17/M18 A3036 RMK AO2 SNB47 SLP285 P0000 60000 T11671178 56006
KSYR 140852Z 00000KT 9SM -SN SCT004 M17/M18 A3036 RMK AO2 SNB47 P0000
KSYR 140754Z 15003KT 10SM FEW250 M16/M18 A3037 RMK AO2 SLP289 T11561178
KSYR 140654Z 10004KT 10SM FEW220 M16/M18 A3038 RMK AO2 SLP292 T11561178
KSYR 140554Z 11003KT 10SM FEW220 M16/M17 A3037 RMK AO2 SLP290 4/008 T11561172 11106 21156 58009
KSYR 140454Z 00000KT 10SM FEW200 M15/M17 A3039 RMK AO2 SLP296 T11501167 410561167
KSYR 140354Z 00000KT 10SM FEW200 M14/M16 A3040 RMK AO2 SLP302 T11391156
KSYR 140254Z 00000KT 10SM FEW200 M14/M17 A3040 RMK AO2 SLP299 T11441172 55000
KSYR 140154Z 00000KT 10SM FEW200 M13/M16 A3040 RMK AO2 SLP300 T11281161
KSYR 140054Z 33004KT 10SM FEW200 M11/M16 A3039 RMK AO2 SLP299 T11111156
KSYR 132354Z 34005KT 10SM FEW200 M11/M17 A3040 RMK AO2 SLP300 4/008 T11061167 11056 21106 55003
KSYR 132254Z 00000KT 10SM FEW200 M10/M17 A3039 RMK AO2 SLP299 T11001167
KSYR 132154Z 32005KT 10SM FEW200 FEW250 M08/M17 A3040 RMK AO2 SLP299 T10781172
KSYR 132054Z 25003KT 10SM FEW250 M07/M17 A3041 RMK AO2 SLP302 T10671172 56009
KSYR 131954Z 00000KT 10SM FEW200 FEW250 M06/M17 A3041 RMK AO2 SLP304 T10611172
KSYR 131854Z 00000KT 10SM FEW200 FEW250 M08/M17 A3042 RMK AO2 SLP307 T10781172